<?xml version="1.0" encoding="UTF-8" standalone="no" ?>
<gpx xmlns="http://www.topografix.com/GPX/1/1" xmlns:xsi="http://www.w3.org/2001/XMLSchema-instance" xsi:schemaLocation="http://www.topografix.com/GPX/1/1 http://www.topografix.com/GPX/1/1/gpx.xsd" version="1.1" creator="VisuGPX - https://www.visugpx.com">
  <metadata>
    <name>Sulniac_Autour_10-20km</name>
    <desc><![CDATA[gnerando idor:8142417_8142461]]></desc>
  </metadata>
  <trk>
    <name><![CDATA[Sulniac_VieuxVillages_20.5km-8142417]]></name>
    <extensions>
      <line xmlns="http://www.topografix.com/GPX/gpx_style/0/2">
        <color>0000FF</color>
        <width>4</width>
      </line>
    </extensions>
    <trkseg>
      <trkpt lat="47.67551" lon="-2.57062">
        <ele>124</ele>
        <time>2023-11-14T05:04:49Z</time>
      </trkpt>
      <trkpt lat="47.67517" lon="-2.57096">
        <ele>125</ele>
        <time>2023-11-14T05:05:44Z</time>
      </trkpt>
      <trkpt lat="47.67452" lon="-2.57115">
        <ele>127</ele>
        <time>2023-11-14T05:07:12Z</time>
      </trkpt>
      <trkpt lat="47.67439" lon="-2.57125">
        <ele>127</ele>
        <time>2023-11-14T05:07:32Z</time>
      </trkpt>
      <trkpt lat="47.67351" lon="-2.5717">
        <ele>130</ele>
        <time>2023-11-14T05:09:36Z</time>
      </trkpt>
      <trkpt lat="47.67304" lon="-2.57169">
        <ele>131</ele>
        <time>2023-11-14T05:10:39Z</time>
      </trkpt>
      <trkpt lat="47.6726" lon="-2.57113">
        <ele>130</ele>
        <time>2023-11-14T05:11:56Z</time>
      </trkpt>
      <trkpt lat="47.67243" lon="-2.57106">
        <ele>130</ele>
        <time>2023-11-14T05:12:19Z</time>
      </trkpt>
      <trkpt lat="47.67214" lon="-2.57109">
        <ele>130</ele>
        <time>2023-11-14T05:12:58Z</time>
      </trkpt>
      <trkpt lat="47.67145" lon="-2.57112">
        <ele>131</ele>
        <time>2023-11-14T05:14:30Z</time>
      </trkpt>
      <trkpt lat="47.67099" lon="-2.5713">
        <ele>132</ele>
        <time>2023-11-14T05:15:34Z</time>
      </trkpt>
      <trkpt lat="47.67031" lon="-2.57211">
        <ele>130</ele>
        <time>2023-11-14T05:17:30Z</time>
      </trkpt>
      <trkpt lat="47.67018" lon="-2.57235">
        <ele>129</ele>
        <time>2023-11-14T05:17:58Z</time>
      </trkpt>
      <trkpt lat="47.66999" lon="-2.57284">
        <ele>128</ele>
        <time>2023-11-14T05:18:49Z</time>
      </trkpt>
      <trkpt lat="47.66994" lon="-2.57443">
        <ele>129</ele>
        <time>2023-11-14T05:21:12Z</time>
      </trkpt>
      <trkpt lat="47.66997" lon="-2.57453">
        <ele>129</ele>
        <time>2023-11-14T05:21:22Z</time>
      </trkpt>
      <trkpt lat="47.6699" lon="-2.57549">
        <ele>132</ele>
        <time>2023-11-14T05:22:48Z</time>
      </trkpt>
      <trkpt lat="47.67007" lon="-2.57548">
        <ele>132</ele>
        <time>2023-11-14T05:23:11Z</time>
      </trkpt>
      <trkpt lat="47.67" lon="-2.57652">
        <ele>134</ele>
        <time>2023-11-14T05:24:45Z</time>
      </trkpt>
      <trkpt lat="47.66999" lon="-2.57703">
        <ele>135</ele>
        <time>2023-11-14T05:25:31Z</time>
      </trkpt>
      <trkpt lat="47.67005" lon="-2.57782">
        <ele>136</ele>
        <time>2023-11-14T05:26:42Z</time>
      </trkpt>
      <trkpt lat="47.67006" lon="-2.57804">
        <ele>136</ele>
        <time>2023-11-14T05:27:02Z</time>
      </trkpt>
      <trkpt lat="47.66989" lon="-2.57827">
        <ele>137</ele>
        <time>2023-11-14T05:27:33Z</time>
      </trkpt>
      <trkpt lat="47.67052" lon="-2.58109">
        <ele>135</ele>
        <time>2023-11-14T05:32:00Z</time>
      </trkpt>
      <trkpt lat="47.67057" lon="-2.58149">
        <ele>136</ele>
        <time>2023-11-14T05:32:36Z</time>
      </trkpt>
      <trkpt lat="47.67052" lon="-2.58198">
        <ele>136</ele>
        <time>2023-11-14T05:33:21Z</time>
      </trkpt>
      <trkpt lat="47.67043" lon="-2.58226">
        <ele>136</ele>
        <time>2023-11-14T05:33:49Z</time>
      </trkpt>
      <trkpt lat="47.66994" lon="-2.58265">
        <ele>133</ele>
        <time>2023-11-14T05:35:03Z</time>
      </trkpt>
      <trkpt lat="47.66988" lon="-2.5828">
        <ele>132</ele>
        <time>2023-11-14T05:35:19Z</time>
      </trkpt>
      <trkpt lat="47.66985" lon="-2.5829">
        <ele>132</ele>
        <time>2023-11-14T05:35:28Z</time>
      </trkpt>
      <trkpt lat="47.67003" lon="-2.58333">
        <ele>131</ele>
        <time>2023-11-14T05:36:14Z</time>
      </trkpt>
      <trkpt lat="47.67054" lon="-2.58373">
        <ele>132</ele>
        <time>2023-11-14T05:37:31Z</time>
      </trkpt>
      <trkpt lat="47.67062" lon="-2.58445">
        <ele>130</ele>
        <time>2023-11-14T05:38:36Z</time>
      </trkpt>
      <trkpt lat="47.67049" lon="-2.58494">
        <ele>128</ele>
        <time>2023-11-14T05:39:24Z</time>
      </trkpt>
      <trkpt lat="47.6704" lon="-2.58515">
        <ele>127</ele>
        <time>2023-11-14T05:39:46Z</time>
      </trkpt>
      <trkpt lat="47.67029" lon="-2.58558">
        <ele>127</ele>
        <time>2023-11-14T05:40:27Z</time>
      </trkpt>
      <trkpt lat="47.67029" lon="-2.58622">
        <ele>128</ele>
        <time>2023-11-14T05:41:25Z</time>
      </trkpt>
      <trkpt lat="47.6707" lon="-2.58616">
        <ele>129</ele>
        <time>2023-11-14T05:42:20Z</time>
      </trkpt>
      <trkpt lat="47.67133" lon="-2.58605">
        <ele>134</ele>
        <time>2023-11-14T05:43:45Z</time>
      </trkpt>
      <trkpt lat="47.67149" lon="-2.58718">
        <ele>139</ele>
        <time>2023-11-14T05:45:28Z</time>
      </trkpt>
      <trkpt lat="47.6716" lon="-2.58778">
        <ele>141</ele>
        <time>2023-11-14T05:46:24Z</time>
      </trkpt>
      <trkpt lat="47.67157" lon="-2.58818">
        <ele>142</ele>
        <time>2023-11-14T05:47:00Z</time>
      </trkpt>
      <trkpt lat="47.67129" lon="-2.58933">
        <ele>140</ele>
        <time>2023-11-14T05:48:50Z</time>
      </trkpt>
      <trkpt lat="47.67101" lon="-2.58999">
        <ele>136</ele>
        <time>2023-11-14T05:50:00Z</time>
      </trkpt>
      <trkpt lat="47.67067" lon="-2.59016">
        <ele>135</ele>
        <time>2023-11-14T05:50:48Z</time>
      </trkpt>
      <trkpt lat="47.6701" lon="-2.58989">
        <ele>133</ele>
        <time>2023-11-14T05:52:08Z</time>
      </trkpt>
      <trkpt lat="47.66811" lon="-2.58866">
        <ele>113</ele>
        <time>2023-11-14T05:56:56Z</time>
      </trkpt>
      <trkpt lat="47.66746" lon="-2.58841">
        <ele>111</ele>
        <time>2023-11-14T05:58:25Z</time>
      </trkpt>
      <trkpt lat="47.66725" lon="-2.58842">
        <ele>112</ele>
        <time>2023-11-14T05:58:53Z</time>
      </trkpt>
      <trkpt lat="47.66715" lon="-2.58854">
        <ele>113</ele>
        <time>2023-11-14T05:59:11Z</time>
      </trkpt>
      <trkpt lat="47.66685" lon="-2.59014">
        <ele>106</ele>
        <time>2023-11-14T06:01:40Z</time>
      </trkpt>
      <trkpt lat="47.66459" lon="-2.59067">
        <ele>114</ele>
        <time>2023-11-14T06:06:45Z</time>
      </trkpt>
      <trkpt lat="47.66419" lon="-2.59137">
        <ele>109</ele>
        <time>2023-11-14T06:08:08Z</time>
      </trkpt>
      <trkpt lat="47.66316" lon="-2.59223">
        <ele>99</ele>
        <time>2023-11-14T06:10:45Z</time>
      </trkpt>
      <trkpt lat="47.66266" lon="-2.5929">
        <ele>96</ele>
        <time>2023-11-14T06:12:15Z</time>
      </trkpt>
      <trkpt lat="47.66301" lon="-2.59311">
        <ele>98</ele>
        <time>2023-11-14T06:13:06Z</time>
      </trkpt>
      <trkpt lat="47.66328" lon="-2.59383">
        <ele>97</ele>
        <time>2023-11-14T06:14:20Z</time>
      </trkpt>
      <trkpt lat="47.66348" lon="-2.59478">
        <ele>95</ele>
        <time>2023-11-14T06:15:49Z</time>
      </trkpt>
      <trkpt lat="47.66244" lon="-2.59631">
        <ele>91</ele>
        <time>2023-11-14T06:19:04Z</time>
      </trkpt>
      <trkpt lat="47.66298" lon="-2.59781">
        <ele>88</ele>
        <time>2023-11-14T06:21:37Z</time>
      </trkpt>
      <trkpt lat="47.66296" lon="-2.59826">
        <ele>87</ele>
        <time>2023-11-14T06:22:18Z</time>
      </trkpt>
      <trkpt lat="47.66236" lon="-2.59813">
        <ele>94</ele>
        <time>2023-11-14T06:23:39Z</time>
      </trkpt>
      <trkpt lat="47.65994" lon="-2.59987">
        <ele>92</ele>
        <time>2023-11-14T06:29:38Z</time>
      </trkpt>
      <trkpt lat="47.65954" lon="-2.59913">
        <ele>92</ele>
        <time>2023-11-14T06:31:03Z</time>
      </trkpt>
      <trkpt lat="47.65906" lon="-2.59832">
        <ele>87</ele>
        <time>2023-11-14T06:32:40Z</time>
      </trkpt>
      <trkpt lat="47.65869" lon="-2.59812">
        <ele>82</ele>
        <time>2023-11-14T06:33:32Z</time>
      </trkpt>
      <trkpt lat="47.65857" lon="-2.59793">
        <ele>81</ele>
        <time>2023-11-14T06:33:56Z</time>
      </trkpt>
      <trkpt lat="47.65855" lon="-2.59787">
        <ele>81</ele>
        <time>2023-11-14T06:34:02Z</time>
      </trkpt>
      <trkpt lat="47.65863" lon="-2.59756">
        <ele>81</ele>
        <time>2023-11-14T06:34:32Z</time>
      </trkpt>
      <trkpt lat="47.65916" lon="-2.59742">
        <ele>84</ele>
        <time>2023-11-14T06:35:44Z</time>
      </trkpt>
      <trkpt lat="47.66045" lon="-2.59608">
        <ele>87</ele>
        <time>2023-11-14T06:39:14Z</time>
      </trkpt>
      <trkpt lat="47.66067" lon="-2.59562">
        <ele>88</ele>
        <time>2023-11-14T06:40:04Z</time>
      </trkpt>
      <trkpt lat="47.66067" lon="-2.59542">
        <ele>88</ele>
        <time>2023-11-14T06:40:22Z</time>
      </trkpt>
      <trkpt lat="47.66063" lon="-2.59528">
        <ele>87</ele>
        <time>2023-11-14T06:40:36Z</time>
      </trkpt>
      <trkpt lat="47.6604" lon="-2.5955">
        <ele>87</ele>
        <time>2023-11-14T06:41:12Z</time>
      </trkpt>
      <trkpt lat="47.65949" lon="-2.59563">
        <ele>86</ele>
        <time>2023-11-14T06:43:14Z</time>
      </trkpt>
      <trkpt lat="47.65876" lon="-2.59571">
        <ele>85</ele>
        <time>2023-11-14T06:44:52Z</time>
      </trkpt>
      <trkpt lat="47.65849" lon="-2.59566">
        <ele>85</ele>
        <time>2023-11-14T06:45:28Z</time>
      </trkpt>
      <trkpt lat="47.65843" lon="-2.59564">
        <ele>85</ele>
        <time>2023-11-14T06:45:37Z</time>
      </trkpt>
      <trkpt lat="47.65807" lon="-2.59529">
        <ele>86</ele>
        <time>2023-11-14T06:46:34Z</time>
      </trkpt>
      <trkpt lat="47.65789" lon="-2.5953">
        <ele>86</ele>
        <time>2023-11-14T06:46:58Z</time>
      </trkpt>
      <trkpt lat="47.65802" lon="-2.59501">
        <ele>88</ele>
        <time>2023-11-14T06:47:29Z</time>
      </trkpt>
      <trkpt lat="47.65831" lon="-2.59488">
        <ele>88</ele>
        <time>2023-11-14T06:48:10Z</time>
      </trkpt>
      <trkpt lat="47.65857" lon="-2.59461">
        <ele>89</ele>
        <time>2023-11-14T06:48:52Z</time>
      </trkpt>
      <trkpt lat="47.65874" lon="-2.59455">
        <ele>90</ele>
        <time>2023-11-14T06:49:16Z</time>
      </trkpt>
      <trkpt lat="47.6593" lon="-2.59449">
        <ele>90</ele>
        <time>2023-11-14T06:50:30Z</time>
      </trkpt>
      <trkpt lat="47.65963" lon="-2.59428">
        <ele>90</ele>
        <time>2023-11-14T06:51:18Z</time>
      </trkpt>
      <trkpt lat="47.65941" lon="-2.594">
        <ele>92</ele>
        <time>2023-11-14T06:51:57Z</time>
      </trkpt>
      <trkpt lat="47.65959" lon="-2.59306">
        <ele>94</ele>
        <time>2023-11-14T06:53:25Z</time>
      </trkpt>
      <trkpt lat="47.65973" lon="-2.59231">
        <ele>97</ele>
        <time>2023-11-14T06:54:35Z</time>
      </trkpt>
      <trkpt lat="47.65946" lon="-2.59159">
        <ele>100</ele>
        <time>2023-11-14T06:55:49Z</time>
      </trkpt>
      <trkpt lat="47.65919" lon="-2.59105">
        <ele>103</ele>
        <time>2023-11-14T06:56:49Z</time>
      </trkpt>
      <trkpt lat="47.6591" lon="-2.59072">
        <ele>105</ele>
        <time>2023-11-14T06:57:21Z</time>
      </trkpt>
      <trkpt lat="47.65905" lon="-2.58984">
        <ele>111</ele>
        <time>2023-11-14T06:58:41Z</time>
      </trkpt>
      <trkpt lat="47.65891" lon="-2.58882">
        <ele>114</ele>
        <time>2023-11-14T07:00:14Z</time>
      </trkpt>
      <trkpt lat="47.65877" lon="-2.58851">
        <ele>115</ele>
        <time>2023-11-14T07:00:48Z</time>
      </trkpt>
      <trkpt lat="47.65823" lon="-2.58754">
        <ele>118</ele>
        <time>2023-11-14T07:02:41Z</time>
      </trkpt>
      <trkpt lat="47.65782" lon="-2.58676">
        <ele>120</ele>
        <time>2023-11-14T07:04:10Z</time>
      </trkpt>
      <trkpt lat="47.6575" lon="-2.58613">
        <ele>120</ele>
        <time>2023-11-14T07:05:21Z</time>
      </trkpt>
      <trkpt lat="47.65633" lon="-2.58457">
        <ele>114</ele>
        <time>2023-11-14T07:08:51Z</time>
      </trkpt>
      <trkpt lat="47.65583" lon="-2.58379">
        <ele>110</ele>
        <time>2023-11-14T07:10:27Z</time>
      </trkpt>
      <trkpt lat="47.65558" lon="-2.58317">
        <ele>106</ele>
        <time>2023-11-14T07:11:32Z</time>
      </trkpt>
      <trkpt lat="47.6554" lon="-2.58275">
        <ele>104</ele>
        <time>2023-11-14T07:12:17Z</time>
      </trkpt>
      <trkpt lat="47.65526" lon="-2.58255">
        <ele>103</ele>
        <time>2023-11-14T07:12:43Z</time>
      </trkpt>
      <trkpt lat="47.65509" lon="-2.58187">
        <ele>101</ele>
        <time>2023-11-14T07:13:48Z</time>
      </trkpt>
      <trkpt lat="47.65504" lon="-2.58107">
        <ele>102</ele>
        <time>2023-11-14T07:15:00Z</time>
      </trkpt>
      <trkpt lat="47.655" lon="-2.58101">
        <ele>102</ele>
        <time>2023-11-14T07:15:08Z</time>
      </trkpt>
      <trkpt lat="47.65454" lon="-2.58094">
        <ele>102</ele>
        <time>2023-11-14T07:16:10Z</time>
      </trkpt>
      <trkpt lat="47.65432" lon="-2.58101">
        <ele>101</ele>
        <time>2023-11-14T07:16:40Z</time>
      </trkpt>
      <trkpt lat="47.65414" lon="-2.581">
        <ele>101</ele>
        <time>2023-11-14T07:17:04Z</time>
      </trkpt>
      <trkpt lat="47.65382" lon="-2.58052">
        <ele>98</ele>
        <time>2023-11-14T07:18:05Z</time>
      </trkpt>
      <trkpt lat="47.65373" lon="-2.57939">
        <ele>99</ele>
        <time>2023-11-14T07:19:47Z</time>
      </trkpt>
      <trkpt lat="47.65328" lon="-2.57868">
        <ele>96</ele>
        <time>2023-11-14T07:21:14Z</time>
      </trkpt>
      <trkpt lat="47.65316" lon="-2.57815">
        <ele>98</ele>
        <time>2023-11-14T07:22:05Z</time>
      </trkpt>
      <trkpt lat="47.65307" lon="-2.57768">
        <ele>101</ele>
        <time>2023-11-14T07:22:49Z</time>
      </trkpt>
      <trkpt lat="47.65311" lon="-2.57717">
        <ele>104</ele>
        <time>2023-11-14T07:23:35Z</time>
      </trkpt>
      <trkpt lat="47.65315" lon="-2.57625">
        <ele>108</ele>
        <time>2023-11-14T07:24:58Z</time>
      </trkpt>
      <trkpt lat="47.65285" lon="-2.57512">
        <ele>109</ele>
        <time>2023-11-14T07:26:47Z</time>
      </trkpt>
      <trkpt lat="47.65287" lon="-2.57503">
        <ele>110</ele>
        <time>2023-11-14T07:26:55Z</time>
      </trkpt>
      <trkpt lat="47.65478" lon="-2.57267">
        <ele>118</ele>
        <time>2023-11-14T07:32:27Z</time>
      </trkpt>
      <trkpt lat="47.65486" lon="-2.57241">
        <ele>118</ele>
        <time>2023-11-14T07:32:53Z</time>
      </trkpt>
      <trkpt lat="47.65482" lon="-2.57232">
        <ele>118</ele>
        <time>2023-11-14T07:33:02Z</time>
      </trkpt>
      <trkpt lat="47.65478" lon="-2.5717">
        <ele>116</ele>
        <time>2023-11-14T07:33:58Z</time>
      </trkpt>
      <trkpt lat="47.65465" lon="-2.57107">
        <ele>118</ele>
        <time>2023-11-14T07:34:58Z</time>
      </trkpt>
      <trkpt lat="47.6545" lon="-2.57051">
        <ele>120</ele>
        <time>2023-11-14T07:35:52Z</time>
      </trkpt>
      <trkpt lat="47.65441" lon="-2.56983">
        <ele>121</ele>
        <time>2023-11-14T07:36:54Z</time>
      </trkpt>
      <trkpt lat="47.65435" lon="-2.56961">
        <ele>120</ele>
        <time>2023-11-14T07:37:15Z</time>
      </trkpt>
      <trkpt lat="47.6542" lon="-2.56952">
        <ele>120</ele>
        <time>2023-11-14T07:37:37Z</time>
      </trkpt>
      <trkpt lat="47.6535" lon="-2.5694">
        <ele>118</ele>
        <time>2023-11-14T07:39:11Z</time>
      </trkpt>
      <trkpt lat="47.65315" lon="-2.56928">
        <ele>117</ele>
        <time>2023-11-14T07:39:59Z</time>
      </trkpt>
      <trkpt lat="47.65286" lon="-2.56919">
        <ele>115</ele>
        <time>2023-11-14T07:40:38Z</time>
      </trkpt>
      <trkpt lat="47.6528" lon="-2.5691">
        <ele>115</ele>
        <time>2023-11-14T07:40:50Z</time>
      </trkpt>
      <trkpt lat="47.6527" lon="-2.56871">
        <ele>115</ele>
        <time>2023-11-14T07:41:27Z</time>
      </trkpt>
      <trkpt lat="47.6526" lon="-2.56814">
        <ele>115</ele>
        <time>2023-11-14T07:42:20Z</time>
      </trkpt>
      <trkpt lat="47.65247" lon="-2.56781">
        <ele>114</ele>
        <time>2023-11-14T07:42:55Z</time>
      </trkpt>
      <trkpt lat="47.65229" lon="-2.56754">
        <ele>113</ele>
        <time>2023-11-14T07:43:29Z</time>
      </trkpt>
      <trkpt lat="47.65208" lon="-2.56742">
        <ele>113</ele>
        <time>2023-11-14T07:43:59Z</time>
      </trkpt>
      <trkpt lat="47.65185" lon="-2.5673">
        <ele>112</ele>
        <time>2023-11-14T07:44:31Z</time>
      </trkpt>
      <trkpt lat="47.65164" lon="-2.56697">
        <ele>112</ele>
        <time>2023-11-14T07:45:12Z</time>
      </trkpt>
      <trkpt lat="47.65154" lon="-2.56655">
        <ele>110</ele>
        <time>2023-11-14T07:45:52Z</time>
      </trkpt>
      <trkpt lat="47.65146" lon="-2.56591">
        <ele>109</ele>
        <time>2023-11-14T07:46:51Z</time>
      </trkpt>
      <trkpt lat="47.65145" lon="-2.56557">
        <ele>109</ele>
        <time>2023-11-14T07:47:21Z</time>
      </trkpt>
      <trkpt lat="47.65147" lon="-2.5651">
        <ele>110</ele>
        <time>2023-11-14T07:48:04Z</time>
      </trkpt>
      <trkpt lat="47.65139" lon="-2.56468">
        <ele>110</ele>
        <time>2023-11-14T07:48:43Z</time>
      </trkpt>
      <trkpt lat="47.65137" lon="-2.56438">
        <ele>111</ele>
        <time>2023-11-14T07:49:10Z</time>
      </trkpt>
      <trkpt lat="47.65145" lon="-2.5639">
        <ele>113</ele>
        <time>2023-11-14T07:49:54Z</time>
      </trkpt>
      <trkpt lat="47.65146" lon="-2.56366">
        <ele>114</ele>
        <time>2023-11-14T07:50:16Z</time>
      </trkpt>
      <trkpt lat="47.65138" lon="-2.56333">
        <ele>116</ele>
        <time>2023-11-14T07:50:48Z</time>
      </trkpt>
      <trkpt lat="47.65136" lon="-2.56314">
        <ele>115</ele>
        <time>2023-11-14T07:51:05Z</time>
      </trkpt>
      <trkpt lat="47.65145" lon="-2.56294">
        <ele>116</ele>
        <time>2023-11-14T07:51:27Z</time>
      </trkpt>
      <trkpt lat="47.65173" lon="-2.56244">
        <ele>116</ele>
        <time>2023-11-14T07:52:25Z</time>
      </trkpt>
      <trkpt lat="47.65186" lon="-2.56224">
        <ele>115</ele>
        <time>2023-11-14T07:52:50Z</time>
      </trkpt>
      <trkpt lat="47.65199" lon="-2.5621">
        <ele>113</ele>
        <time>2023-11-14T07:53:11Z</time>
      </trkpt>
      <trkpt lat="47.65201" lon="-2.56184">
        <ele>112</ele>
        <time>2023-11-14T07:53:35Z</time>
      </trkpt>
      <trkpt lat="47.65196" lon="-2.56154">
        <ele>111</ele>
        <time>2023-11-14T07:54:03Z</time>
      </trkpt>
      <trkpt lat="47.65187" lon="-2.56119">
        <ele>110</ele>
        <time>2023-11-14T07:54:36Z</time>
      </trkpt>
      <trkpt lat="47.6519" lon="-2.56103">
        <ele>109</ele>
        <time>2023-11-14T07:54:51Z</time>
      </trkpt>
      <trkpt lat="47.65265" lon="-2.56104">
        <ele>105</ele>
        <time>2023-11-14T07:56:31Z</time>
      </trkpt>
      <trkpt lat="47.65319" lon="-2.56104">
        <ele>107</ele>
        <time>2023-11-14T07:57:43Z</time>
      </trkpt>
      <trkpt lat="47.65329" lon="-2.56129">
        <ele>107</ele>
        <time>2023-11-14T07:58:10Z</time>
      </trkpt>
      <trkpt lat="47.65338" lon="-2.56167">
        <ele>108</ele>
        <time>2023-11-14T07:58:46Z</time>
      </trkpt>
      <trkpt lat="47.65348" lon="-2.56215">
        <ele>107</ele>
        <time>2023-11-14T07:59:31Z</time>
      </trkpt>
      <trkpt lat="47.65355" lon="-2.5625">
        <ele>107</ele>
        <time>2023-11-14T08:00:04Z</time>
      </trkpt>
      <trkpt lat="47.65363" lon="-2.56261">
        <ele>107</ele>
        <time>2023-11-14T08:00:18Z</time>
      </trkpt>
      <trkpt lat="47.65367" lon="-2.56262">
        <ele>107</ele>
        <time>2023-11-14T08:00:24Z</time>
      </trkpt>
      <trkpt lat="47.65382" lon="-2.56236">
        <ele>106</ele>
        <time>2023-11-14T08:00:55Z</time>
      </trkpt>
      <trkpt lat="47.65417" lon="-2.56219">
        <ele>105</ele>
        <time>2023-11-14T08:01:44Z</time>
      </trkpt>
      <trkpt lat="47.65435" lon="-2.56212">
        <ele>106</ele>
        <time>2023-11-14T08:02:08Z</time>
      </trkpt>
      <trkpt lat="47.65459" lon="-2.56196">
        <ele>107</ele>
        <time>2023-11-14T08:02:44Z</time>
      </trkpt>
      <trkpt lat="47.65487" lon="-2.56178">
        <ele>108</ele>
        <time>2023-11-14T08:03:24Z</time>
      </trkpt>
      <trkpt lat="47.65538" lon="-2.56133">
        <ele>108</ele>
        <time>2023-11-14T08:04:43Z</time>
      </trkpt>
      <trkpt lat="47.65581" lon="-2.56111">
        <ele>108</ele>
        <time>2023-11-14T08:05:44Z</time>
      </trkpt>
      <trkpt lat="47.65606" lon="-2.561">
        <ele>108</ele>
        <time>2023-11-14T08:06:19Z</time>
      </trkpt>
      <trkpt lat="47.65634" lon="-2.56125">
        <ele>108</ele>
        <time>2023-11-14T08:07:03Z</time>
      </trkpt>
      <trkpt lat="47.6565" lon="-2.56118">
        <ele>108</ele>
        <time>2023-11-14T08:07:25Z</time>
      </trkpt>
      <trkpt lat="47.65662" lon="-2.56119">
        <ele>108</ele>
        <time>2023-11-14T08:07:41Z</time>
      </trkpt>
      <trkpt lat="47.65665" lon="-2.56076">
        <ele>108</ele>
        <time>2023-11-14T08:08:20Z</time>
      </trkpt>
      <trkpt lat="47.65659" lon="-2.55973">
        <ele>104</ele>
        <time>2023-11-14T08:09:53Z</time>
      </trkpt>
      <trkpt lat="47.65639" lon="-2.55917">
        <ele>99</ele>
        <time>2023-11-14T08:10:50Z</time>
      </trkpt>
      <trkpt lat="47.65624" lon="-2.55903">
        <ele>98</ele>
        <time>2023-11-14T08:11:13Z</time>
      </trkpt>
      <trkpt lat="47.65599" lon="-2.55903">
        <ele>98</ele>
        <time>2023-11-14T08:11:47Z</time>
      </trkpt>
      <trkpt lat="47.65538" lon="-2.55948">
        <ele>99</ele>
        <time>2023-11-14T08:13:18Z</time>
      </trkpt>
      <trkpt lat="47.65503" lon="-2.55915">
        <ele>97</ele>
        <time>2023-11-14T08:14:13Z</time>
      </trkpt>
      <trkpt lat="47.65501" lon="-2.55904">
        <ele>97</ele>
        <time>2023-11-14T08:14:23Z</time>
      </trkpt>
      <trkpt lat="47.65516" lon="-2.55886">
        <ele>98</ele>
        <time>2023-11-14T08:14:49Z</time>
      </trkpt>
      <trkpt lat="47.65547" lon="-2.55839">
        <ele>98</ele>
        <time>2023-11-14T08:15:48Z</time>
      </trkpt>
      <trkpt lat="47.65558" lon="-2.55802">
        <ele>98</ele>
        <time>2023-11-14T08:16:24Z</time>
      </trkpt>
      <trkpt lat="47.65555" lon="-2.55769">
        <ele>98</ele>
        <time>2023-11-14T08:16:54Z</time>
      </trkpt>
      <trkpt lat="47.65542" lon="-2.55726">
        <ele>99</ele>
        <time>2023-11-14T08:17:37Z</time>
      </trkpt>
      <trkpt lat="47.65526" lon="-2.55697">
        <ele>100</ele>
        <time>2023-11-14T08:18:10Z</time>
      </trkpt>
      <trkpt lat="47.65506" lon="-2.55663">
        <ele>102</ele>
        <time>2023-11-14T08:18:51Z</time>
      </trkpt>
      <trkpt lat="47.65488" lon="-2.5566">
        <ele>102</ele>
        <time>2023-11-14T08:19:15Z</time>
      </trkpt>
      <trkpt lat="47.65437" lon="-2.55662">
        <ele>99</ele>
        <time>2023-11-14T08:20:23Z</time>
      </trkpt>
      <trkpt lat="47.65419" lon="-2.55665">
        <ele>98</ele>
        <time>2023-11-14T08:20:47Z</time>
      </trkpt>
      <trkpt lat="47.65403" lon="-2.55666">
        <ele>98</ele>
        <time>2023-11-14T08:21:09Z</time>
      </trkpt>
      <trkpt lat="47.654" lon="-2.55324">
        <ele>114</ele>
        <time>2023-11-14T08:26:16Z</time>
      </trkpt>
      <trkpt lat="47.65401" lon="-2.55229">
        <ele>114</ele>
        <time>2023-11-14T08:27:42Z</time>
      </trkpt>
      <trkpt lat="47.65496" lon="-2.55237">
        <ele>116</ele>
        <time>2023-11-14T08:29:49Z</time>
      </trkpt>
      <trkpt lat="47.65581" lon="-2.55237">
        <ele>114</ele>
        <time>2023-11-14T08:31:42Z</time>
      </trkpt>
      <trkpt lat="47.65612" lon="-2.55229">
        <ele>114</ele>
        <time>2023-11-14T08:32:24Z</time>
      </trkpt>
      <trkpt lat="47.65638" lon="-2.55218">
        <ele>114</ele>
        <time>2023-11-14T08:33:00Z</time>
      </trkpt>
      <trkpt lat="47.6568" lon="-2.55194">
        <ele>112</ele>
        <time>2023-11-14T08:34:00Z</time>
      </trkpt>
      <trkpt lat="47.65702" lon="-2.55118">
        <ele>112</ele>
        <time>2023-11-14T08:35:14Z</time>
      </trkpt>
      <trkpt lat="47.65774" lon="-2.54748">
        <ele>110</ele>
        <time>2023-11-14T08:41:01Z</time>
      </trkpt>
      <trkpt lat="47.65805" lon="-2.5461">
        <ele>111</ele>
        <time>2023-11-14T08:43:11Z</time>
      </trkpt>
      <trkpt lat="47.65816" lon="-2.54591">
        <ele>110</ele>
        <time>2023-11-14T08:43:34Z</time>
      </trkpt>
      <trkpt lat="47.65851" lon="-2.54548">
        <ele>111</ele>
        <time>2023-11-14T08:44:35Z</time>
      </trkpt>
      <trkpt lat="47.65883" lon="-2.54514">
        <ele>112</ele>
        <time>2023-11-14T08:45:27Z</time>
      </trkpt>
      <trkpt lat="47.65986" lon="-2.54439">
        <ele>114</ele>
        <time>2023-11-14T08:48:00Z</time>
      </trkpt>
      <trkpt lat="47.66037" lon="-2.544">
        <ele>116</ele>
        <time>2023-11-14T08:49:17Z</time>
      </trkpt>
      <trkpt lat="47.66014" lon="-2.5434">
        <ele>115</ele>
        <time>2023-11-14T08:50:19Z</time>
      </trkpt>
      <trkpt lat="47.65956" lon="-2.54225">
        <ele>116</ele>
        <time>2023-11-14T08:52:28Z</time>
      </trkpt>
      <trkpt lat="47.65941" lon="-2.54195">
        <ele>116</ele>
        <time>2023-11-14T08:53:01Z</time>
      </trkpt>
      <trkpt lat="47.65905" lon="-2.54142">
        <ele>117</ele>
        <time>2023-11-14T08:54:09Z</time>
      </trkpt>
      <trkpt lat="47.65848" lon="-2.54081">
        <ele>118</ele>
        <time>2023-11-14T08:55:43Z</time>
      </trkpt>
      <trkpt lat="47.65791" lon="-2.54017">
        <ele>119</ele>
        <time>2023-11-14T08:57:18Z</time>
      </trkpt>
      <trkpt lat="47.65721" lon="-2.53963">
        <ele>122</ele>
        <time>2023-11-14T08:59:03Z</time>
      </trkpt>
      <trkpt lat="47.65749" lon="-2.53886">
        <ele>120</ele>
        <time>2023-11-14T09:00:22Z</time>
      </trkpt>
      <trkpt lat="47.65755" lon="-2.53874">
        <ele>120</ele>
        <time>2023-11-14T09:00:36Z</time>
      </trkpt>
      <trkpt lat="47.65782" lon="-2.53855">
        <ele>119</ele>
        <time>2023-11-14T09:01:15Z</time>
      </trkpt>
      <trkpt lat="47.65793" lon="-2.53818">
        <ele>118</ele>
        <time>2023-11-14T09:01:52Z</time>
      </trkpt>
      <trkpt lat="47.65793" lon="-2.53803">
        <ele>118</ele>
        <time>2023-11-14T09:02:05Z</time>
      </trkpt>
      <trkpt lat="47.65801" lon="-2.53769">
        <ele>117</ele>
        <time>2023-11-14T09:02:38Z</time>
      </trkpt>
      <trkpt lat="47.6587" lon="-2.53696">
        <ele>116</ele>
        <time>2023-11-14T09:04:31Z</time>
      </trkpt>
      <trkpt lat="47.65956" lon="-2.53597">
        <ele>113</ele>
        <time>2023-11-14T09:06:56Z</time>
      </trkpt>
      <trkpt lat="47.65936" lon="-2.53538">
        <ele>112</ele>
        <time>2023-11-14T09:07:55Z</time>
      </trkpt>
      <trkpt lat="47.66005" lon="-2.53537">
        <ele>112</ele>
        <time>2023-11-14T09:09:27Z</time>
      </trkpt>
      <trkpt lat="47.66056" lon="-2.53521">
        <ele>111</ele>
        <time>2023-11-14T09:10:37Z</time>
      </trkpt>
      <trkpt lat="47.66094" lon="-2.5349">
        <ele>110</ele>
        <time>2023-11-14T09:11:35Z</time>
      </trkpt>
      <trkpt lat="47.66119" lon="-2.53455">
        <ele>108</ele>
        <time>2023-11-14T09:12:21Z</time>
      </trkpt>
      <trkpt lat="47.6614" lon="-2.53402">
        <ele>107</ele>
        <time>2023-11-14T09:13:16Z</time>
      </trkpt>
      <trkpt lat="47.66125" lon="-2.53291">
        <ele>109</ele>
        <time>2023-11-14T09:14:58Z</time>
      </trkpt>
      <trkpt lat="47.66105" lon="-2.53163">
        <ele>107</ele>
        <time>2023-11-14T09:16:56Z</time>
      </trkpt>
      <trkpt lat="47.66112" lon="-2.53144">
        <ele>107</ele>
        <time>2023-11-14T09:17:15Z</time>
      </trkpt>
      <trkpt lat="47.6614" lon="-2.53039">
        <ele>106</ele>
        <time>2023-11-14T09:18:57Z</time>
      </trkpt>
      <trkpt lat="47.66153" lon="-2.53014">
        <ele>106</ele>
        <time>2023-11-14T09:19:25Z</time>
      </trkpt>
      <trkpt lat="47.66161" lon="-2.53002">
        <ele>106</ele>
        <time>2023-11-14T09:19:40Z</time>
      </trkpt>
      <trkpt lat="47.66175" lon="-2.52922">
        <ele>104</ele>
        <time>2023-11-14T09:20:55Z</time>
      </trkpt>
      <trkpt lat="47.66184" lon="-2.52908">
        <ele>103</ele>
        <time>2023-11-14T09:21:12Z</time>
      </trkpt>
      <trkpt lat="47.66198" lon="-2.52898">
        <ele>102</ele>
        <time>2023-11-14T09:21:33Z</time>
      </trkpt>
      <trkpt lat="47.66225" lon="-2.52881">
        <ele>101</ele>
        <time>2023-11-14T09:22:12Z</time>
      </trkpt>
      <trkpt lat="47.66343" lon="-2.52694">
        <ele>103</ele>
        <time>2023-11-14T09:26:02Z</time>
      </trkpt>
      <trkpt lat="47.66363" lon="-2.52677">
        <ele>105</ele>
        <time>2023-11-14T09:26:33Z</time>
      </trkpt>
      <trkpt lat="47.66427" lon="-2.52654">
        <ele>109</ele>
        <time>2023-11-14T09:28:01Z</time>
      </trkpt>
      <trkpt lat="47.66378" lon="-2.52591">
        <ele>108</ele>
        <time>2023-11-14T09:29:27Z</time>
      </trkpt>
      <trkpt lat="47.66347" lon="-2.52537">
        <ele>107</ele>
        <time>2023-11-14T09:30:31Z</time>
      </trkpt>
      <trkpt lat="47.66315" lon="-2.52513">
        <ele>104</ele>
        <time>2023-11-14T09:31:19Z</time>
      </trkpt>
      <trkpt lat="47.66296" lon="-2.52437">
        <ele>102</ele>
        <time>2023-11-14T09:32:32Z</time>
      </trkpt>
      <trkpt lat="47.66291" lon="-2.52366">
        <ele>101</ele>
        <time>2023-11-14T09:33:36Z</time>
      </trkpt>
      <trkpt lat="47.66274" lon="-2.52307">
        <ele>99</ele>
        <time>2023-11-14T09:34:34Z</time>
      </trkpt>
      <trkpt lat="47.66279" lon="-2.52245">
        <ele>101</ele>
        <time>2023-11-14T09:35:30Z</time>
      </trkpt>
      <trkpt lat="47.66323" lon="-2.52077">
        <ele>106</ele>
        <time>2023-11-14T09:38:12Z</time>
      </trkpt>
      <trkpt lat="47.66367" lon="-2.51985">
        <ele>107</ele>
        <time>2023-11-14T09:39:53Z</time>
      </trkpt>
      <trkpt lat="47.66444" lon="-2.5195">
        <ele>108</ele>
        <time>2023-11-14T09:41:41Z</time>
      </trkpt>
      <trkpt lat="47.66464" lon="-2.51913">
        <ele>108</ele>
        <time>2023-11-14T09:42:23Z</time>
      </trkpt>
      <trkpt lat="47.66463" lon="-2.5187">
        <ele>108</ele>
        <time>2023-11-14T09:43:02Z</time>
      </trkpt>
      <trkpt lat="47.66489" lon="-2.5185">
        <ele>109</ele>
        <time>2023-11-14T09:43:41Z</time>
      </trkpt>
      <trkpt lat="47.66501" lon="-2.51893">
        <ele>109</ele>
        <time>2023-11-14T09:44:23Z</time>
      </trkpt>
      <trkpt lat="47.66528" lon="-2.51928">
        <ele>110</ele>
        <time>2023-11-14T09:45:11Z</time>
      </trkpt>
      <trkpt lat="47.66595" lon="-2.52067">
        <ele>111</ele>
        <time>2023-11-14T09:47:44Z</time>
      </trkpt>
      <trkpt lat="47.66628" lon="-2.5212">
        <ele>112</ele>
        <time>2023-11-14T09:48:49Z</time>
      </trkpt>
      <trkpt lat="47.66741" lon="-2.52169">
        <ele>115</ele>
        <time>2023-11-14T09:51:26Z</time>
      </trkpt>
      <trkpt lat="47.6677" lon="-2.52192">
        <ele>116</ele>
        <time>2023-11-14T09:52:10Z</time>
      </trkpt>
      <trkpt lat="47.66876" lon="-2.52226">
        <ele>121</ele>
        <time>2023-11-14T09:54:35Z</time>
      </trkpt>
      <trkpt lat="47.66881" lon="-2.52263">
        <ele>121</ele>
        <time>2023-11-14T09:55:09Z</time>
      </trkpt>
      <trkpt lat="47.66897" lon="-2.52501">
        <ele>124</ele>
        <time>2023-11-14T09:58:44Z</time>
      </trkpt>
      <trkpt lat="47.66904" lon="-2.52558">
        <ele>125</ele>
        <time>2023-11-14T09:59:36Z</time>
      </trkpt>
      <trkpt lat="47.66908" lon="-2.5256">
        <ele>125</ele>
        <time>2023-11-14T09:59:41Z</time>
      </trkpt>
      <trkpt lat="47.67" lon="-2.52508">
        <ele>126</ele>
        <time>2023-11-14T10:01:53Z</time>
      </trkpt>
      <trkpt lat="47.67158" lon="-2.52418">
        <ele>120</ele>
        <time>2023-11-14T10:05:39Z</time>
      </trkpt>
      <trkpt lat="47.67173" lon="-2.5241">
        <ele>119</ele>
        <time>2023-11-14T10:06:00Z</time>
      </trkpt>
      <trkpt lat="47.67206" lon="-2.5238">
        <ele>115</ele>
        <time>2023-11-14T10:06:51Z</time>
      </trkpt>
      <trkpt lat="47.67313" lon="-2.52353">
        <ele>103</ele>
        <time>2023-11-14T10:09:16Z</time>
      </trkpt>
      <trkpt lat="47.67324" lon="-2.5237">
        <ele>104</ele>
        <time>2023-11-14T10:09:37Z</time>
      </trkpt>
      <trkpt lat="47.67336" lon="-2.52379">
        <ele>103</ele>
        <time>2023-11-14T10:09:55Z</time>
      </trkpt>
      <trkpt lat="47.6735" lon="-2.52387">
        <ele>102</ele>
        <time>2023-11-14T10:10:15Z</time>
      </trkpt>
      <trkpt lat="47.67358" lon="-2.52407">
        <ele>102</ele>
        <time>2023-11-14T10:10:36Z</time>
      </trkpt>
      <trkpt lat="47.674" lon="-2.52446">
        <ele>98</ele>
        <time>2023-11-14T10:11:42Z</time>
      </trkpt>
      <trkpt lat="47.6745" lon="-2.52463">
        <ele>91</ele>
        <time>2023-11-14T10:12:51Z</time>
      </trkpt>
      <trkpt lat="47.67483" lon="-2.52489">
        <ele>87</ele>
        <time>2023-11-14T10:13:41Z</time>
      </trkpt>
      <trkpt lat="47.67504" lon="-2.52537">
        <ele>88</ele>
        <time>2023-11-14T10:14:32Z</time>
      </trkpt>
      <trkpt lat="47.67511" lon="-2.52601">
        <ele>92</ele>
        <time>2023-11-14T10:15:30Z</time>
      </trkpt>
      <trkpt lat="47.67527" lon="-2.52637">
        <ele>93</ele>
        <time>2023-11-14T10:16:09Z</time>
      </trkpt>
      <trkpt lat="47.67549" lon="-2.52669">
        <ele>92</ele>
        <time>2023-11-14T10:16:50Z</time>
      </trkpt>
      <trkpt lat="47.67549" lon="-2.52693">
        <ele>93</ele>
        <time>2023-11-14T10:17:12Z</time>
      </trkpt>
      <trkpt lat="47.67558" lon="-2.52757">
        <ele>95</ele>
        <time>2023-11-14T10:18:11Z</time>
      </trkpt>
      <trkpt lat="47.6757" lon="-2.5279">
        <ele>96</ele>
        <time>2023-11-14T10:18:44Z</time>
      </trkpt>
      <trkpt lat="47.67599" lon="-2.52808">
        <ele>96</ele>
        <time>2023-11-14T10:19:26Z</time>
      </trkpt>
      <trkpt lat="47.67712" lon="-2.5284">
        <ele>93</ele>
        <time>2023-11-14T10:22:00Z</time>
      </trkpt>
      <trkpt lat="47.67756" lon="-2.52889">
        <ele>92</ele>
        <time>2023-11-14T10:23:13Z</time>
      </trkpt>
      <trkpt lat="47.67754" lon="-2.52904">
        <ele>92</ele>
        <time>2023-11-14T10:23:27Z</time>
      </trkpt>
      <trkpt lat="47.67775" lon="-2.53001">
        <ele>92</ele>
        <time>2023-11-14T10:24:58Z</time>
      </trkpt>
      <trkpt lat="47.678" lon="-2.53032">
        <ele>90</ele>
        <time>2023-11-14T10:25:42Z</time>
      </trkpt>
      <trkpt lat="47.67828" lon="-2.53092">
        <ele>89</ele>
        <time>2023-11-14T10:26:47Z</time>
      </trkpt>
      <trkpt lat="47.67853" lon="-2.53149">
        <ele>90</ele>
        <time>2023-11-14T10:27:49Z</time>
      </trkpt>
      <trkpt lat="47.67667" lon="-2.53384">
        <ele>105</ele>
        <time>2023-11-14T10:33:14Z</time>
      </trkpt>
      <trkpt lat="47.6762" lon="-2.53443">
        <ele>110</ele>
        <time>2023-11-14T10:34:37Z</time>
      </trkpt>
      <trkpt lat="47.676" lon="-2.53438">
        <ele>111</ele>
        <time>2023-11-14T10:35:04Z</time>
      </trkpt>
      <trkpt lat="47.67571" lon="-2.53412">
        <ele>112</ele>
        <time>2023-11-14T10:35:49Z</time>
      </trkpt>
      <trkpt lat="47.67551" lon="-2.53392">
        <ele>113</ele>
        <time>2023-11-14T10:36:21Z</time>
      </trkpt>
      <trkpt lat="47.6748" lon="-2.53389">
        <ele>115</ele>
        <time>2023-11-14T10:37:56Z</time>
      </trkpt>
      <trkpt lat="47.67428" lon="-2.53391">
        <ele>115</ele>
        <time>2023-11-14T10:39:05Z</time>
      </trkpt>
      <trkpt lat="47.67405" lon="-2.53383">
        <ele>115</ele>
        <time>2023-11-14T10:39:37Z</time>
      </trkpt>
      <trkpt lat="47.67397" lon="-2.53397">
        <ele>115</ele>
        <time>2023-11-14T10:39:53Z</time>
      </trkpt>
      <trkpt lat="47.67399" lon="-2.53422">
        <ele>115</ele>
        <time>2023-11-14T10:40:16Z</time>
      </trkpt>
      <trkpt lat="47.67403" lon="-2.5348">
        <ele>115</ele>
        <time>2023-11-14T10:41:08Z</time>
      </trkpt>
      <trkpt lat="47.67403" lon="-2.5351">
        <ele>115</ele>
        <time>2023-11-14T10:41:35Z</time>
      </trkpt>
      <trkpt lat="47.67414" lon="-2.53588">
        <ele>113</ele>
        <time>2023-11-14T10:42:47Z</time>
      </trkpt>
      <trkpt lat="47.67421" lon="-2.53639">
        <ele>109</ele>
        <time>2023-11-14T10:43:34Z</time>
      </trkpt>
      <trkpt lat="47.67421" lon="-2.53718">
        <ele>106</ele>
        <time>2023-11-14T10:44:45Z</time>
      </trkpt>
      <trkpt lat="47.67413" lon="-2.53743">
        <ele>106</ele>
        <time>2023-11-14T10:45:09Z</time>
      </trkpt>
      <trkpt lat="47.67329" lon="-2.53809">
        <ele>110</ele>
        <time>2023-11-14T10:47:16Z</time>
      </trkpt>
      <trkpt lat="47.67306" lon="-2.53827">
        <ele>111</ele>
        <time>2023-11-14T10:47:51Z</time>
      </trkpt>
      <trkpt lat="47.67279" lon="-2.5384">
        <ele>111</ele>
        <time>2023-11-14T10:48:29Z</time>
      </trkpt>
      <trkpt lat="47.67263" lon="-2.53846">
        <ele>112</ele>
        <time>2023-11-14T10:48:51Z</time>
      </trkpt>
      <trkpt lat="47.67197" lon="-2.53853">
        <ele>112</ele>
        <time>2023-11-14T10:50:19Z</time>
      </trkpt>
      <trkpt lat="47.67215" lon="-2.53962">
        <ele>112</ele>
        <time>2023-11-14T10:52:00Z</time>
      </trkpt>
      <trkpt lat="47.67237" lon="-2.54102">
        <ele>115</ele>
        <time>2023-11-14T10:54:09Z</time>
      </trkpt>
      <trkpt lat="47.67214" lon="-2.54105">
        <ele>114</ele>
        <time>2023-11-14T10:54:40Z</time>
      </trkpt>
      <trkpt lat="47.67171" lon="-2.54112">
        <ele>114</ele>
        <time>2023-11-14T10:55:38Z</time>
      </trkpt>
      <trkpt lat="47.6714" lon="-2.54113">
        <ele>114</ele>
        <time>2023-11-14T10:56:19Z</time>
      </trkpt>
      <trkpt lat="47.67103" lon="-2.54115">
        <ele>114</ele>
        <time>2023-11-14T10:57:09Z</time>
      </trkpt>
      <trkpt lat="47.67077" lon="-2.54104">
        <ele>113</ele>
        <time>2023-11-14T10:57:45Z</time>
      </trkpt>
      <trkpt lat="47.67066" lon="-2.54113">
        <ele>113</ele>
        <time>2023-11-14T10:58:01Z</time>
      </trkpt>
      <trkpt lat="47.67062" lon="-2.54133">
        <ele>113</ele>
        <time>2023-11-14T10:58:20Z</time>
      </trkpt>
      <trkpt lat="47.67066" lon="-2.54179">
        <ele>114</ele>
        <time>2023-11-14T10:59:02Z</time>
      </trkpt>
      <trkpt lat="47.67055" lon="-2.54281">
        <ele>116</ele>
        <time>2023-11-14T11:00:35Z</time>
      </trkpt>
      <trkpt lat="47.67053" lon="-2.54311">
        <ele>116</ele>
        <time>2023-11-14T11:01:02Z</time>
      </trkpt>
      <trkpt lat="47.67044" lon="-2.54325">
        <ele>116</ele>
        <time>2023-11-14T11:01:19Z</time>
      </trkpt>
      <trkpt lat="47.67039" lon="-2.54361">
        <ele>116</ele>
        <time>2023-11-14T11:01:52Z</time>
      </trkpt>
      <trkpt lat="47.67022" lon="-2.54388">
        <ele>116</ele>
        <time>2023-11-14T11:02:25Z</time>
      </trkpt>
      <trkpt lat="47.66989" lon="-2.54419">
        <ele>117</ele>
        <time>2023-11-14T11:03:17Z</time>
      </trkpt>
      <trkpt lat="47.66926" lon="-2.54482">
        <ele>119</ele>
        <time>2023-11-14T11:04:59Z</time>
      </trkpt>
      <trkpt lat="47.66936" lon="-2.54504">
        <ele>118</ele>
        <time>2023-11-14T11:05:23Z</time>
      </trkpt>
      <trkpt lat="47.66987" lon="-2.54803">
        <ele>119</ele>
        <time>2023-11-14T11:10:00Z</time>
      </trkpt>
      <trkpt lat="47.67006" lon="-2.54918">
        <ele>119</ele>
        <time>2023-11-14T11:11:46Z</time>
      </trkpt>
      <trkpt lat="47.67043" lon="-2.55131">
        <ele>126</ele>
        <time>2023-11-14T11:15:04Z</time>
      </trkpt>
      <trkpt lat="47.66976" lon="-2.55181">
        <ele>127</ele>
        <time>2023-11-14T11:16:44Z</time>
      </trkpt>
      <trkpt lat="47.67059" lon="-2.55343">
        <ele>129</ele>
        <time>2023-11-14T11:19:47Z</time>
      </trkpt>
      <trkpt lat="47.67196" lon="-2.55603">
        <ele>131</ele>
        <time>2023-11-14T11:24:44Z</time>
      </trkpt>
      <trkpt lat="47.67298" lon="-2.55788">
        <ele>130</ele>
        <time>2023-11-14T11:28:18Z</time>
      </trkpt>
      <trkpt lat="47.67334" lon="-2.55847">
        <ele>131</ele>
        <time>2023-11-14T11:29:30Z</time>
      </trkpt>
      <trkpt lat="47.67316" lon="-2.55875">
        <ele>130</ele>
        <time>2023-11-14T11:30:05Z</time>
      </trkpt>
      <trkpt lat="47.67308" lon="-2.55908">
        <ele>129</ele>
        <time>2023-11-14T11:30:36Z</time>
      </trkpt>
      <trkpt lat="47.673" lon="-2.55983">
        <ele>129</ele>
        <time>2023-11-14T11:31:44Z</time>
      </trkpt>
      <trkpt lat="47.67283" lon="-2.56059">
        <ele>127</ele>
        <time>2023-11-14T11:32:56Z</time>
      </trkpt>
      <trkpt lat="47.6728" lon="-2.56094">
        <ele>127</ele>
        <time>2023-11-14T11:33:28Z</time>
      </trkpt>
      <trkpt lat="47.67277" lon="-2.56117">
        <ele>127</ele>
        <time>2023-11-14T11:33:49Z</time>
      </trkpt>
      <trkpt lat="47.67244" lon="-2.56217">
        <ele>126</ele>
        <time>2023-11-14T11:35:29Z</time>
      </trkpt>
      <trkpt lat="47.67241" lon="-2.56253">
        <ele>126</ele>
        <time>2023-11-14T11:36:02Z</time>
      </trkpt>
      <trkpt lat="47.67241" lon="-2.56284">
        <ele>127</ele>
        <time>2023-11-14T11:36:30Z</time>
      </trkpt>
      <trkpt lat="47.67247" lon="-2.56332">
        <ele>127</ele>
        <time>2023-11-14T11:37:14Z</time>
      </trkpt>
      <trkpt lat="47.67188" lon="-2.5635">
        <ele>129</ele>
        <time>2023-11-14T11:38:34Z</time>
      </trkpt>
      <trkpt lat="47.67215" lon="-2.56404">
        <ele>129</ele>
        <time>2023-11-14T11:39:34Z</time>
      </trkpt>
      <trkpt lat="47.67254" lon="-2.56481">
        <ele>130</ele>
        <time>2023-11-14T11:41:01Z</time>
      </trkpt>
      <trkpt lat="47.67265" lon="-2.56511">
        <ele>129</ele>
        <time>2023-11-14T11:41:32Z</time>
      </trkpt>
      <trkpt lat="47.67289" lon="-2.56586">
        <ele>127</ele>
        <time>2023-11-14T11:42:46Z</time>
      </trkpt>
      <trkpt lat="47.67304" lon="-2.56639">
        <ele>126</ele>
        <time>2023-11-14T11:43:38Z</time>
      </trkpt>
      <trkpt lat="47.67466" lon="-2.56621">
        <ele>123</ele>
        <time>2023-11-14T11:47:15Z</time>
      </trkpt>
      <trkpt lat="47.67482" lon="-2.56682">
        <ele>123</ele>
        <time>2023-11-14T11:48:14Z</time>
      </trkpt>
      <trkpt lat="47.67505" lon="-2.56784">
        <ele>122</ele>
        <time>2023-11-14T11:49:50Z</time>
      </trkpt>
      <trkpt lat="47.67502" lon="-2.5681">
        <ele>122</ele>
        <time>2023-11-14T11:50:14Z</time>
      </trkpt>
      <trkpt lat="47.67493" lon="-2.56916">
        <ele>122</ele>
        <time>2023-11-14T11:51:50Z</time>
      </trkpt>
      <trkpt lat="47.67498" lon="-2.56966">
        <ele>123</ele>
        <time>2023-11-14T11:52:35Z</time>
      </trkpt>
      <trkpt lat="47.67506" lon="-2.56987">
        <ele>123</ele>
        <time>2023-11-14T11:52:57Z</time>
      </trkpt>
      <trkpt lat="47.67526" lon="-2.57027">
        <ele>123</ele>
        <time>2023-11-14T11:53:42Z</time>
      </trkpt>
      <trkpt lat="47.67551" lon="-2.57059">
        <ele>124</ele>
        <time>2023-11-14T11:54:26Z</time>
      </trkpt>
    </trkseg>
  </trk>
</gpx>